Time;durP1;ratioP1;P1;durP2;ratioP2;P2;SDS_P1;SDS_P2;PMS_P1;PMS_P2;Temp;Humidity;BMP_temperature;BMP_pressure;BME280_temperature;BME280_humidity;BME280_pressure;Samples;Min_cycle;Max_cycle;Signal;HPM_P1;HPM_P2
2022/11/09 00:01:12;;;;;;;;;;;;;;;13.13;80.21;100438.19;5043653;28;19917;-61
2022/11/09 00:03:38;;;;;;;;;;;;;;;13.11;80.02;100445.56;5046021;28;19916;-59
2022/11/09 00:06:03;;;;;;;;;;;;;;;13.13;79.91;100445.38;5045702;28;19932;-60
2022/11/09 00:08:28;;;;;;;;;;;;;;;13.12;79.67;100441.06;5048866;28;20007;-60
2022/11/09 00:10:53;;;;;;;;;;;;;;;13.11;79.64;100434.91;5045076;28;19920;-62
2022/11/09 00:13:18;;;;;;;;;;;;;;;13.17;79.60;100447.47;5046437;28;19924;-59
2022/11/09 00:15:43;;;;;;;;;;;;;;;13.23;79.55;100446.66;5040123;28;20015;-60
2022/11/09 00:18:09;;;;;;;;;;;;;;;13.26;79.43;100440.13;5046153;28;19924;-59
2022/11/09 00:20:34;;;;;;;;;;;;;;;13.28;79.65;100441.56;5046193;28;20042;-59
2022/11/09 00:22:59;;;;;;;;;;;;;;;13.29;79.50;100450.38;5046474;28;19921;-59
2022/11/09 00:25:24;;;;;;;;;;;;;;;13.29;79.62;100442.38;5047035;28;20408;-59
2022/11/09 00:27:49;;;;;;;;;;;;;;;13.28;79.56;100438.91;5045982;28;19920;-58
2022/11/09 00:30:14;;;;;;;;;;;;;;;13.27;79.62;100447.09;5045529;28;19917;-58
2022/11/09 00:32:40;;;;;;;;;;;;;;;13.26;79.64;100432.13;5046362;28;19963;-60
2022/11/09 00:35:05;;;;;;;;;;;;;;;13.28;79.72;100443.41;5047494;28;19974;-60
2022/11/09 00:37:30;;;;;;;;;;;;;;;13.29;79.87;100445.06;5049208;28;19916;-60
2022/11/09 00:39:57;;;;;;;;;;;;;;;13.28;80.19;100452.22;5043549;28;19917;-60
2022/11/09 00:42:22;;;;;;;;;;;;;;;13.28;80.25;100436.22;5046290;28;20340;-58
2022/11/09 00:44:47;;;;;;;;;;;;;;;13.25;80.47;100433.13;5043678;28;20396;-60
2022/11/09 00:47:12;;;;;;;;;;;;;;;13.22;80.42;100439.69;5046769;28;20011;-60
2022/11/09 00:49:37;;;;;;;;;;;;;;;13.22;80.50;100436.19;5038147;28;20325;-60
2022/11/09 00:52:02;;;;;;;;;;;;;;;13.21;80.65;100442.56;5045428;28;19925;-60
2022/11/09 00:54:28;;;;;;;;;;;;;;;13.20;80.55;100441.72;5042714;28;19924;-60
2022/11/09 00:56:53;;;;;;;;;;;;;;;13.20;80.72;100439.06;5047136;28;19951;-60
2022/11/09 00:59:18;;;;;;;;;;;;;;;13.19;80.71;100425.94;5046405;28;19917;-59
2022/11/09 01:01:43;;;;;;;;;;;;;;;13.17;80.48;100422.63;5043669;28;19925;-60
2022/11/09 01:04:08;;;;;;;;;;;;;;;13.15;80.65;100424.66;5047462;28;19920;-60
2022/11/09 01:06:34;;;;;;;;;;;;;;;13.13;80.97;100438.19;5043919;28;20000;-60
2022/11/09 01:08:59;;;;;;;;;;;;;;;13.10;81.47;100417.25;5042803;28;20327;-60
2022/11/09 01:11:24;;;;;;;;;;;;;;;13.09;81.75;100423.59;5046869;28;19979;-60
2022/11/09 01:13:50;;;;;;;;;;;;;;;13.10;81.87;100441.25;5048620;28;20322;-60
2022/11/09 01:16:16;;;;;;;;;;;;;;;13.10;82.04;100449.25;5045721;28;19924;-59
2022/11/09 01:18:42;;;;;;;;;;;;;;;13.09;82.05;100449.44;5046639;28;19920;-60
2022/11/09 01:21:08;;;;;;;;;;;;;;;13.08;82.04;100448.63;5043909;28;20346;-58
2022/11/09 01:23:34;;;;;;;;;;;;;;;13.07;82.46;100452.31;5048706;28;20007;-60
2022/11/09 01:26:00;;;;;;;;;;;;;;;13.06;82.15;100450.66;5044699;28;20000;-60
2022/11/09 01:28:25;;;;;;;;;;;;;;;13.03;82.66;100453.72;5045917;28;20427;-59
2022/11/09 01:30:51;;;;;;;;;;;;;;;13.02;82.65;100452.91;5045146;28;19917;-60
2022/11/09 01:33:16;;;;;;;;;;;;;;;12.99;82.65;100455.94;5055191;28;19924;-59
2022/11/09 01:35:41;;;;;;;;;;;;;;;12.96;82.74;100451.00;5051032;28;19920;-59
2022/11/09 01:38:07;;;;;;;;;;;;;;;12.97;82.83;100457.16;5048346;28;20997;-60
2022/11/09 01:40:33;;;;;;;;;;;;;;;12.98;82.79;100459.63;5046460;28;19916;-60
2022/11/09 01:43:04;;;;;;;;;;;;;;;13.00;82.79;100456.75;5049910;28;20337;-60
2022/11/09 01:45:29;;;;;;;;;;;;;;;12.98;82.57;100445.47;5049546;28;20046;-60
2022/11/09 01:48:24;;;;;;;;;;;;;;;12.93;82.32;100440.72;5047554;28;20636;-62
2022/11/09 01:50:52;;;;;;;;;;;;;;;12.94;82.36;100452.22;5038871;28;19916;-59
2022/11/09 01:53:19;;;;;;;;;;;;;;;12.92;82.55;100454.25;5049746;28;19920;-58
2022/11/09 01:55:46;;;;;;;;;;;;;;;12.87;82.24;100449.50;5049393;28;19925;-60
2022/11/09 01:58:13;;;;;;;;;;;;;;;12.85;82.36;100448.06;5049687;28;19931;-60
2022/11/09 02:00:42;;;;;;;;;;;;;;;12.82;82.42;100441.28;5044978;28;20000;-60
2022/11/09 02:03:11;;;;;;;;;;;;;;;12.79;82.32;100435.53;5046439;28;19955;-60
2022/11/09 02:05:37;;;;;;;;;;;;;;;12.76;82.43;100449.25;5048679;28;19920;-61
2022/11/09 02:08:04;;;;;;;;;;;;;;;12.79;82.43;100448.84;5042795;28;19951;-60
2022/11/09 02:10:48;;;;;;;;;;;;;;;12.79;82.24;100451.50;5048360;28;19973;-60
2022/11/09 02:13:15;;;;;;;;;;;;;;;12.77;82.14;100451.72;5052417;28;19916;-59
2022/11/09 02:15:41;;;;;;;;;;;;;;;12.77;82.24;100440.22;5049076;28;19925;-58
2022/11/09 02:18:06;;;;;;;;;;;;;;;12.75;81.98;100442.25;5053623;28;19932;-60
2022/11/09 02:20:42;;;;;;;;;;;;;;;12.72;82.04;100448.78;5043283;28;20293;-59
2022/11/09 02:23:07;;;;;;;;;;;;;;;12.71;82.05;100444.47;5046205;28;20441;-60
2022/11/09 02:25:32;;;;;;;;;;;;;;;12.67;82.06;100452.03;5050071;28;19924;-60
2022/11/09 02:27:58;;;;;;;;;;;;;;;12.67;82.46;100449.38;5047735;28;19967;-59
2022/11/09 02:30:23;;;;;;;;;;;;;;;12.68;82.18;100453.66;5048092;28;19920;-59
2022/11/09 02:32:49;;;;;;;;;;;;;;;12.66;82.41;100453.03;5044075;28;19916;-60
2022/11/09 02:35:14;;;;;;;;;;;;;;;12.68;82.50;100469.66;5045612;28;20384;-59
2022/11/09 02:37:43;;;;;;;;;;;;;;;12.70;82.46;100456.13;5048405;28;19925;-58
2022/11/09 02:40:12;;;;;;;;;;;;;;;12.70;82.51;100459.63;5044736;28;20054;-59
2022/11/09 02:42:38;;;;;;;;;;;;;;;12.72;82.33;100472.75;5047667;28;19921;-57
2022/11/09 02:45:03;;;;;;;;;;;;;;;12.75;82.11;100452.91;5043628;28;19935;-60
2022/11/09 02:47:28;;;;;;;;;;;;;;;12.74;81.80;100452.09;5045991;28;19927;-59
2022/11/09 02:49:56;;;;;;;;;;;;;;;12.77;82.13;100448.22;5045590;28;20050;-60
2022/11/09 02:52:21;;;;;;;;;;;;;;;12.80;81.83;100439.84;5043212;28;19928;-60
2022/11/09 02:54:46;;;;;;;;;;;;;;;12.83;81.60;100444.78;5044914;28;19918;-61
2022/11/09 02:57:12;;;;;;;;;;;;;;;12.88;81.36;100431.69;5049550;28;20445;-60
2022/11/09 02:59:37;;;;;;;;;;;;;;;12.88;80.76;100445.00;5046877;28;20024;-59
2022/11/09 03:02:02;;;;;;;;;;;;;;;12.91;80.83;100439.28;5048238;28;20562;-60
2022/11/09 03:04:27;;;;;;;;;;;;;;;12.89;80.59;100444.81;5048436;28;19917;-59
2022/11/09 03:06:52;;;;;;;;;;;;;;;12.91;80.89;100441.94;5050229;28;19982;-59
2022/11/09 03:09:18;;;;;;;;;;;;;;;12.91;80.89;100460.59;5048683;28;20500;-60
2022/11/09 03:11:43;;;;;;;;;;;;;;;12.89;80.66;100471.47;5048378;28;19923;-59
2022/11/09 03:14:08;;;;;;;;;;;;;;;12.87;80.43;100462.00;5048247;28;19931;-59
2022/11/09 03:16:34;;;;;;;;;;;;;;;12.89;80.18;100479.44;5050605;28;19909;-60
2022/11/09 03:18:59;;;;;;;;;;;;;;;12.92;80.07;100479.06;5049289;28;20374;-59
2022/11/09 03:21:24;;;;;;;;;;;;;;;12.94;79.80;100490.34;5043198;28;20372;-60
2022/11/09 03:23:49;;;;;;;;;;;;;;;12.95;79.28;100484.00;5042959;28;19967;-58
2022/11/09 03:26:15;;;;;;;;;;;;;;;12.95;79.18;100483.19;5049434;28;19963;-60
2022/11/09 03:28:40;;;;;;;;;;;;;;;12.94;79.20;100489.53;5045003;28;19920;-59
2022/11/09 03:31:05;;;;;;;;;;;;;;;12.92;79.20;100480.91;5046528;28;20818;-59
2022/11/09 03:33:31;;;;;;;;;;;;;;;12.90;78.81;100488.28;5049838;28;19917;-60
2022/11/09 03:35:56;;;;;;;;;;;;;;;12.89;78.85;100491.97;5046958;28;19924;-58
2022/11/09 03:38:21;;;;;;;;;;;;;;;12.86;79.08;100487.03;5049828;28;19917;-58
2022/11/09 03:40:46;;;;;;;;;;;;;;;12.84;78.95;100491.72;5047099;28;19923;-59
2022/11/09 03:43:11;;;;;;;;;;;;;;;12.79;79.38;100502.13;5047831;28;19924;-60
2022/11/09 03:45:37;;;;;;;;;;;;;;;12.76;79.06;100513.19;5050436;28;19964;-60
2022/11/09 03:48:02;;;;;;;;;;;;;;;12.76;79.42;100515.84;5047766;28;19921;-57
2022/11/09 03:50:31;;;;;;;;;;;;;;;12.74;79.24;100515.22;5047348;28;19923;-57
2022/11/09 03:52:57;;;;;;;;;;;;;;;12.71;79.29;100514.56;5045603;28;20444;-59
2022/11/09 03:55:23;;;;;;;;;;;;;;;12.69;79.55;100519.25;5042852;28;19917;-59
2022/11/09 03:57:48;;;;;;;;;;;;;;;12.66;79.87;100524.97;5050697;28;19963;-61
2022/11/09 04:00:15;;;;;;;;;;;;;;;12.63;79.64;100535.19;5046684;28;19921;-60
2022/11/09 04:02:40;;;;;;;;;;;;;;;12.57;80.17;100535.97;5047709;28;20463;-59
2022/11/09 04:05:06;;;;;;;;;;;;;;;12.53;80.13;100538.19;5048028;28;20652;-60
2022/11/09 04:07:31;;;;;;;;;;;;;;;12.51;80.36;100540.22;5044792;28;19917;-60
2022/11/09 04:09:56;;;;;;;;;;;;;;;12.48;80.85;100540.59;5045967;28;19916;-60
2022/11/09 04:12:22;;;;;;;;;;;;;;;12.45;81.05;100548.97;5047687;28;19924;-59
2022/11/09 04:14:47;;;;;;;;;;;;;;;12.42;81.26;100544.00;5044587;28;19920;-60
2022/11/09 04:17:12;;;;;;;;;;;;;;;12.36;81.29;100555.41;5048361;28;19927;-60
2022/11/09 04:19:37;;;;;;;;;;;;;;;12.31;81.44;100553.31;5046925;28;20421;-60
2022/11/09 04:22:02;;;;;;;;;;;;;;;12.31;81.56;100552.50;5047263;28;19947;-60
2022/11/09 04:24:28;;;;;;;;;;;;;;;12.31;81.93;100552.50;5046389;28;19921;-60
2022/11/09 04:26:53;;;;;;;;;;;;;;;12.33;82.07;100553.13;5043584;28;20253;-60
2022/11/09 04:29:18;;;;;;;;;;;;;;;12.29;82.21;100550.03;5044755;28;19927;-59
2022/11/09 04:31:43;;;;;;;;;;;;;;;12.24;82.42;100556.94;5049206;28;19917;-60
2022/11/09 04:34:08;;;;;;;;;;;;;;;12.21;82.71;100549.34;5046008;28;20097;-60
2022/11/09 04:36:34;;;;;;;;;;;;;;;12.19;82.80;100564.66;5045004;28;19923;-59
2022/11/09 04:38:59;;;;;;;;;;;;;;;12.15;82.85;100560.75;5045018;28;19916;-59
2022/11/09 04:41:24;;;;;;;;;;;;;;;12.15;83.02;100563.41;5042627;28;19931;-60
2022/11/09 04:43:49;;;;;;;;;;;;;;;12.14;83.29;100559.88;5046563;28;19921;-60
2022/11/09 04:46:14;;;;;;;;;;;;;;;12.15;83.23;100563.41;5038898;28;20446;-60
2022/11/09 04:48:39;;;;;;;;;;;;;;;12.16;83.47;100559.72;5046352;28;19921;-59
2022/11/09 04:51:07;;;;;;;;;;;;;;;12.15;83.24;100558.06;5043766;28;19959;-60
2022/11/09 04:53:32;;;;;;;;;;;;;;;12.13;83.42;100557.41;5045661;28;20007;-59
2022/11/09 04:55:58;;;;;;;;;;;;;;;12.13;83.33;100558.22;5046080;28;20050;-59
2022/11/09 04:58:23;;;;;;;;;;;;;;;12.13;83.35;100560.91;5049387;28;20058;-58
2022/11/09 05:00:49;;;;;;;;;;;;;;;12.13;83.60;100557.41;5043503;28;19932;-60
2022/11/09 05:03:14;;;;;;;;;;;;;;;12.11;83.44;100568.25;5046732;28;19956;-59
2022/11/09 05:05:40;;;;;;;;;;;;;;;12.09;83.57;100560.44;5045963;28;20308;-59
2022/11/09 05:08:06;;;;;;;;;;;;;;;12.05;83.51;100564.50;5044826;28;20338;-58
2022/11/09 05:10:31;;;;;;;;;;;;;;;12.03;83.76;100563.03;5044900;28;19926;-59
2022/11/09 05:13:08;;;;;;;;;;;;;;;12.00;84.12;100564.25;5046237;28;19917;-59
2022/11/09 05:15:34;;;;;;;;;;;;;;;11.99;84.02;100559.09;5044826;28;19943;-59
2022/11/09 05:18:00;;;;;;;;;;;;;;;11.96;83.98;100564.81;5045954;28;20380;-59
2022/11/09 05:20:25;;;;;;;;;;;;;;;11.94;84.29;100565.00;5044216;28;19935;-60
2022/11/09 05:25:34;;;;;;;;;;;;;;;11.87;83.99;100552.63;5046845;28;19927;-60
2022/11/09 05:28:00;;;;;;;;;;;;;;;11.82;84.47;100555.81;5048312;28;20308;-59
2022/11/09 05:30:25;;;;;;;;;;;;;;;11.80;84.80;100555.19;5053873;28;20392;-59
2022/11/09 05:32:50;;;;;;;;;;;;;;;11.81;84.74;100559.50;5055442;28;20740;-60
2022/11/09 05:35:15;;;;;;;;;;;;;;;11.81;85.06;100561.31;5046363;28;19967;-59
2022/11/09 05:37:41;;;;;;;;;;;;;;;11.78;84.93;100560.69;5044878;28;19928;-58
2022/11/09 05:40:07;;;;;;;;;;;;;;;11.76;85.11;100564.50;5042366;28;19936;-60
2022/11/09 05:42:32;;;;;;;;;;;;;;;11.77;85.04;100568.81;5044103;28;20381;-60
2022/11/09 05:44:57;;;;;;;;;;;;;;;11.76;85.43;100564.50;5044457;28;19923;-59
2022/11/09 05:47:22;;;;;;;;;;;;;;;11.74;85.33;100566.53;5045974;28;19925;-60
2022/11/09 05:49:47;;;;;;;;;;;;;;;11.73;85.16;100565.72;5047702;28;20424;-59
2022/11/09 05:52:13;;;;;;;;;;;;;;;11.70;85.24;100567.91;5044774;28;19917;-58
2022/11/09 05:54:38;;;;;;;;;;;;;;;11.67;85.41;100563.78;5046463;28;19916;-59
2022/11/09 05:57:03;;;;;;;;;;;;;;;11.64;85.82;100566.81;5040351;28;19924;-60
2022/11/09 05:59:28;;;;;;;;;;;;;;;11.66;85.69;100569.31;5045807;28;19921;-59
2022/11/09 06:01:53;;;;;;;;;;;;;;;11.62;85.91;100563.53;5042782;28;20292;-60
2022/11/09 06:04:19;;;;;;;;;;;;;;;11.59;86.09;100561.25;5047066;28;19920;-60
2022/11/09 06:06:44;;;;;;;;;;;;;;;11.55;85.85;100567.09;5044988;28;19963;-60
2022/11/09 06:09:09;;;;;;;;;;;;;;;11.55;86.34;100561.75;5044225;28;20266;-60
2022/11/09 06:11:34;;;;;;;;;;;;;;;11.53;86.28;100563.78;5044694;28;19923;-60
2022/11/09 06:13:59;;;;;;;;;;;;;;;11.54;86.44;100562.78;5046259;28;19917;-59
2022/11/09 06:16:24;;;;;;;;;;;;;;;11.54;86.53;100568.09;5045759;28;20396;-60
2022/11/09 06:18:50;;;;;;;;;;;;;;;11.51;86.50;100568.47;5047616;28;19920;-60
2022/11/09 06:21:15;;;;;;;;;;;;;;;11.50;86.66;100572.94;5045313;28;19916;-58
2022/11/09 06:23:40;;;;;;;;;;;;;;;11.53;86.97;100575.25;5050302;28;19925;-60
2022/11/09 06:26:08;;;;;;;;;;;;;;;11.52;86.63;100584.22;5047722;28;20024;-60
2022/11/09 06:28:33;;;;;;;;;;;;;;;11.49;86.92;100590.75;5048797;28;20017;-59
2022/11/09 06:30:59;;;;;;;;;;;;;;;11.45;86.62;100588.63;5048943;28;20019;-60
2022/11/09 06:33:25;;;;;;;;;;;;;;;11.41;86.77;100582.88;5048198;28;19916;-60
2022/11/09 06:35:50;;;;;;;;;;;;;;;11.38;87.29;100583.22;5046623;28;20166;-59
2022/11/09 06:38:15;;;;;;;;;;;;;;;11.36;87.28;100597.72;5047956;28;20375;-58
2022/11/09 06:40:41;;;;;;;;;;;;;;;11.33;87.47;100593.59;5041935;28;19921;-59
2022/11/09 06:43:06;;;;;;;;;;;;;;;11.31;87.46;100589.47;5049544;28;19988;-60
2022/11/09 06:45:31;;;;;;;;;;;;;;;11.32;87.58;100594.59;5049836;28;20039;-60
2022/11/09 06:47:58;;;;;;;;;;;;;;;11.32;87.66;100589.28;5044172;28;19914;-59
2022/11/09 06:50:23;;;;;;;;;;;;;;;11.32;87.56;100594.59;5046396;28;19913;-57
2022/11/09 06:52:48;;;;;;;;;;;;;;;11.33;87.67;100598.91;5051299;28;20012;-60
2022/11/09 06:55:13;;;;;;;;;;;;;;;11.33;87.73;100598.09;5050336;28;19963;-60
2022/11/09 06:57:39;;;;;;;;;;;;;;;11.31;87.68;100584.97;5050535;28;19917;-59
2022/11/09 07:00:04;;;;;;;;;;;;;;;11.29;87.69;100600.28;5045164;28;19920;-59
2022/11/09 07:02:30;;;;;;;;;;;;;;;11.32;88.27;100596.44;5049680;28;19920;-59
2022/11/09 07:04:55;;;;;;;;;;;;;;;11.33;87.92;100598.91;5045312;28;19924;-58
2022/11/09 07:07:20;;;;;;;;;;;;;;;11.35;87.87;100601.38;5048620;28;20623;-59
2022/11/09 07:09:46;;;;;;;;;;;;;;;11.37;87.91;100602.03;5042563;28;19925;-59
2022/11/09 07:12:11;;;;;;;;;;;;;;;11.38;87.79;100616.97;5054310;28;19924;-59
2022/11/09 07:14:36;;;;;;;;;;;;;;;11.39;87.76;100607.97;5052446;28;19921;-57
2022/11/09 07:17:01;;;;;;;;;;;;;;;11.38;87.91;100606.34;5050765;28;20431;-60
2022/11/09 07:19:28;;;;;;;;;;;;;;;11.39;87.76;100611.47;5050766;28;20197;-60
2022/11/09 07:21:53;;;;;;;;;;;;;;;11.42;87.74;100618.25;5050526;28;19953;-59
2022/11/09 07:24:18;;;;;;;;;;;;;;;11.46;87.66;100625.69;5048932;28;19957;-58
2022/11/09 07:26:43;;;;;;;;;;;;;;;11.48;88.00;100628.16;5051523;28;20300;-60
2022/11/09 07:29:09;;;;;;;;;;;;;;;11.50;87.69;100620.81;5048939;28;19917;-58
2022/11/09 07:31:34;;;;;;;;;;;;;;;11.51;87.65;100626.97;5045932;28;19917;-59
2022/11/09 07:34:03;;;;;;;;;;;;;;;11.51;87.89;100621.66;5051860;28;20007;-59
2022/11/09 07:36:28;;;;;;;;;;;;;;;11.52;87.71;100621.47;5060513;28;19916;-60
2022/11/09 07:38:53;;;;;;;;;;;;;;;11.55;87.54;100622.94;5052444;28;19917;-60
2022/11/09 07:41:19;;;;;;;;;;;;;;;11.58;87.35;100626.06;5054644;28;19913;-58
2022/11/09 07:43:44;;;;;;;;;;;;;;;11.61;87.40;100614.25;5050181;28;20024;-60
2022/11/09 07:46:09;;;;;;;;;;;;;;;11.61;87.34;100619.56;5051499;28;19916;-59
2022/11/09 07:48:34;;;;;;;;;;;;;;;11.60;87.15;100629.38;5055821;28;19923;-58
2022/11/09 07:51:00;;;;;;;;;;;;;;;11.61;86.99;100635.53;5048402;28;19999;-60
2022/11/09 07:53:25;;;;;;;;;;;;;;;11.62;86.93;100626.53;5051902;28;20162;-59
2022/11/09 07:55:57;;;;;;;;;;;;;;;11.65;87.10;100642.94;5050073;28;20380;-57
2022/11/09 07:58:23;;;;;;;;;;;;;;;11.69;86.98;100648.72;5049731;28;19912;-60
2022/11/09 08:00:48;;;;;;;;;;;;;;;11.67;86.90;100640.94;5048937;28;20395;-59
2022/11/09 08:03:13;;;;;;;;;;;;;;;11.75;86.59;100653.31;5048575;28;20003;-59
2022/11/09 08:05:38;;;;;;;;;;;;;;;11.78;86.44;100642.34;5051462;28;19913;-58
2022/11/09 08:08:05;;;;;;;;;;;;;;;11.78;86.13;100643.16;5048126;28;19917;-60
2022/11/09 08:10:31;;;;;;;;;;;;;;;11.79;86.24;100646.66;5048912;28;20362;-59
2022/11/09 08:12:57;;;;;;;;;;;;;;;11.78;86.33;100645.00;5054064;28;20004;-59
2022/11/09 08:15:22;;;;;;;;;;;;;;;11.79;85.99;100649.31;5047724;28;20007;-59
2022/11/09 08:17:48;;;;;;;;;;;;;;;11.78;85.96;100658.28;5056607;28;19996;-60
2022/11/09 08:20:14;;;;;;;;;;;;;;;11.82;85.59;100659.56;5048611;28;19948;-59
2022/11/09 08:22:40;;;;;;;;;;;;;;;11.84;85.61;100659.41;5048818;28;19975;-58
2022/11/09 08:25:05;;;;;;;;;;;;;;;11.85;85.33;100661.03;5049800;28;19917;-59
2022/11/09 08:27:30;;;;;;;;;;;;;;;11.85;85.48;100669.84;5051881;28;19916;-60
2022/11/09 08:29:55;;;;;;;;;;;;;;;11.87;85.36;100675.03;5049441;28;19919;-57
2022/11/09 08:32:21;;;;;;;;;;;;;;;11.88;85.34;100668.69;5048862;28;20365;-59
2022/11/09 08:34:47;;;;;;;;;;;;;;;11.93;85.75;100683.09;5048941;28;19920;-59
2022/11/09 08:37:12;;;;;;;;;;;;;;;11.99;85.36;100681.53;5047343;28;20307;-59
2022/11/09 08:39:37;;;;;;;;;;;;;;;12.02;85.30;100681.97;5050334;28;20368;-60
2022/11/09 08:42:02;;;;;;;;;;;;;;;12.08;85.48;100683.06;5055679;28;19931;-60
2022/11/09 08:44:28;;;;;;;;;;;;;;;12.08;85.43;100685.75;5057764;28;19924;-59
2022/11/09 08:46:53;;;;;;;;;;;;;;;12.09;85.13;100690.88;5048306;28;20032;-60
2022/11/09 08:49:18;;;;;;;;;;;;;;;12.09;85.24;100690.88;5047612;28;20384;-59
2022/11/09 08:51:43;;;;;;;;;;;;;;;12.13;85.19;100693.16;5048888;28;19932;-59
2022/11/09 08:54:10;;;;;;;;;;;;;;;12.17;85.43;100684.66;5049273;28;20497;-59
2022/11/09 08:56:35;;;;;;;;;;;;;;;12.20;85.18;100696.78;5047972;28;20736;-59
2022/11/09 08:59:00;;;;;;;;;;;;;;;12.19;84.75;100687.13;5049812;28;19925;-59
2022/11/09 09:01:25;;;;;;;;;;;;;;;12.17;84.79;100697.97;5044312;28;19913;-59
2022/11/09 09:03:50;;;;;;;;;;;;;;;12.20;84.94;100704.75;5061339;28;20303;-60
2022/11/09 09:06:16;;;;;;;;;;;;;;;12.23;84.68;100699.06;5047034;28;19935;-60
2022/11/09 09:08:41;;;;;;;;;;;;;;;12.24;84.61;100692.72;5048710;28;20000;-58
2022/11/09 09:11:06;;;;;;;;;;;;;;;12.26;84.49;100696.84;5043311;28;19925;-60
2022/11/09 09:13:32;;;;;;;;;;;;;;;12.28;83.94;100691.34;5045397;28;20023;-61
2022/11/09 09:15:57;;;;;;;;;;;;;;;12.33;84.17;100684.44;5045085;28;19999;-61
2022/11/09 09:18:22;;;;;;;;;;;;;;;12.36;84.05;100692.06;5039241;28;19921;-61
2022/11/09 09:20:47;;;;;;;;;;;;;;;12.39;83.90;100696.19;5042170;28;19916;-59
2022/11/09 09:23:14;;;;;;;;;;;;;;;12.39;83.54;100693.50;5042853;28;20373;-60
2022/11/09 09:25:39;;;;;;;;;;;;;;;12.39;83.10;100694.34;5044925;28;19916;-60
2022/11/09 09:28:04;;;;;;;;;;;;;;;12.46;83.15;100699.78;5046517;28;19917;-60
2022/11/09 09:30:29;;;;;;;;;;;;;;;12.49;83.11;100715.38;5043224;28;19931;-59
2022/11/09 09:32:57;;;;;;;;;;;;;;;12.51;82.47;100699.22;5045985;28;19916;-58
2022/11/09 09:35:22;;;;;;;;;;;;;;;12.55;82.77;100719.13;5046184;28;19924;-60
2022/11/09 09:37:47;;;;;;;;;;;;;;;12.56;82.55;100710.94;5043654;28;19935;-60
2022/11/09 09:40:20;;;;;;;;;;;;;;;12.56;82.18;100708.28;5045251;28;19921;-58
2022/11/09 09:42:46;;;;;;;;;;;;;;;12.57;81.60;100706.44;5043601;28;19929;-60
2022/11/09 09:45:15;;;;;;;;;;;;;;;12.56;81.85;100708.28;5044654;28;20322;-59
2022/11/09 09:47:58;;;;;;;;;;;;;;;12.57;81.83;100712.59;5045801;28;19917;-59
2022/11/09 09:50:25;;;;;;;;;;;;;;;12.61;81.78;100718.38;5041183;28;19917;-59
2022/11/09 09:52:50;;;;;;;;;;;;;;;12.65;81.23;100720.47;5051748;28;20004;-59
2022/11/09 09:55:23;;;;;;;;;;;;;;;12.68;81.23;100728.09;5051819;28;20016;-59
2022/11/09 09:57:51;;;;;;;;;;;;;;;12.76;81.34;100729.84;5051643;28;19913;-59
2022/11/09 10:00:22;;;;;;;;;;;;;;;12.77;80.94;100734.16;5048078;28;19919;-60
2022/11/09 10:02:48;;;;;;;;;;;;;;;12.79;80.56;100741.97;5052602;28;19917;-59
2022/11/09 10:05:14;;;;;;;;;;;;;;;12.81;80.51;100737.28;5048052;28;19919;-58
2022/11/09 10:07:57;;;;;;;;;;;;;;;12.82;80.61;100731.75;5046157;28;20377;-59
2022/11/09 10:10:37;;;;;;;;;;;;;;;12.90;80.04;100738.81;5051980;28;20074;-59
2022/11/09 10:13:25;;;;;;;;;;;;;;;12.96;79.88;100733.53;5048652;28;20004;-60
2022/11/09 10:15:54;;;;;;;;;;;;;;;13.04;80.01;100740.63;5051009;28;19920;-59
2022/11/09 10:18:32;;;;;;;;;;;;;;;13.09;79.87;100740.88;5048185;28;19920;-60
2022/11/09 10:20:57;;;;;;;;;;;;;;;13.18;79.91;100747.75;5051866;28;19926;-59
2022/11/09 10:23:30;;;;;;;;;;;;;;;13.21;79.31;100743.88;5053128;28;19916;-58
2022/11/09 10:26:18;;;;;;;;;;;;;;;13.23;78.96;100745.34;5052628;28;19913;-60
2022/11/09 10:28:46;;;;;;;;;;;;;;;13.30;78.43;100746.25;5018069;28;20017;-60
2022/11/09 10:31:13;;;;;;;;;;;;;;;13.33;77.36;100742.38;5049477;28;20229;-59
2022/11/09 10:33:39;;;;;;;;;;;;;;;13.32;77.34;100743.38;5045644;28;19940;-58
2022/11/09 10:36:43;;;;;;;;;;;;;;;13.31;77.21;100757.75;5050250;28;19913;-60
2022/11/09 10:39:11;;;;;;;;;;;;;;;13.26;76.82;100760.13;5005129;28;20011;-59
2022/11/09 10:41:38;;;;;;;;;;;;;;;13.24;76.38;100749.66;5008972;28;19932;-60
2022/11/09 10:44:03;;;;;;;;;;;;;;;13.23;76.68;100760.50;5024817;28;19932;-57
2022/11/09 10:46:29;;;;;;;;;;;;;;;13.23;76.82;100763.19;5050822;28;19913;-59
2022/11/09 10:48:54;;;;;;;;;;;;;;;13.21;76.83;100768.72;5045781;28;20323;-59
2022/11/09 10:51:39;;;;;;;;;;;;;;;13.19;76.63;100770.75;5047868;28;19917;-58
2022/11/09 10:54:15;;;;;;;;;;;;;;;13.19;76.22;100768.06;5050048;28;20000;-59
2022/11/09 10:56:44;;;;;;;;;;;;;;;13.16;76.09;100765.75;5047342;28;19913;-59
2022/11/09 10:59:28;;;;;;;;;;;;;;;13.16;76.26;100789.75;5046043;28;19943;-58
2022/11/09 11:01:53;;;;;;;;;;;;;;;13.11;75.66;100773.50;5050352;28;20384;-58
2022/11/09 11:04:21;;;;;;;;;;;;;;;13.11;75.01;100781.50;5053469;28;19924;-58
2022/11/09 11:06:46;;;;;;;;;;;;;;;13.11;74.80;100784.16;5053060;28;19912;-60
2022/11/09 11:09:14;;;;;;;;;;;;;;;13.14;75.19;100769.63;5054835;28;20394;-59
2022/11/09 11:11:39;;;;;;;;;;;;;;;13.17;74.58;100778.09;5048231;28;19917;-59
2022/11/09 11:14:21;;;;;;;;;;;;;;;13.22;75.03;100765.03;5050387;28;20000;-58
2022/11/09 11:16:47;;;;;;;;;;;;;;;13.26;74.59;100776.13;5048128;28;19944;-61
2022/11/09 11:19:31;;;;;;;;;;;;;;;13.24;74.44;100776.31;5055321;28;19921;-59
2022/11/09 11:22:11;;;;;;;;;;;;;;;13.29;74.34;100768.56;5049915;28;20383;-59
2022/11/09 11:24:51;;;;;;;;;;;;;;;13.29;74.24;100773.91;5054169;28;19925;-58
2022/11/09 11:27:38;;;;;;;;;;;;;;;13.30;74.42;100777.44;5043557;28;19913;-60
2022/11/09 11:30:05;;;;;;;;;;;;;;;13.37;74.17;100783.66;5048913;28;19920;-60
2022/11/09 11:32:31;;;;;;;;;;;;;;;13.38;73.34;100777.31;5050691;28;19913;-59
2022/11/09 11:34:56;;;;;;;;;;;;;;;13.39;74.07;100781.63;5055325;28;20426;-58
2022/11/09 11:37:26;;;;;;;;;;;;;;;13.40;74.08;100777.94;5050519;28;19939;-60
2022/11/09 11:40:02;;;;;;;;;;;;;;;13.44;74.19;100791.72;5050019;28;19916;-58
2022/11/09 11:42:43;;;;;;;;;;;;;;;13.37;73.75;100798.81;5048711;28;19917;-60
2022/11/09 11:45:20;;;;;;;;;;;;;;;13.29;73.60;100797.09;5050492;28;19920;-60
2022/11/09 11:47:59;;;;;;;;;;;;;;;13.23;73.90;100782.69;5057177;28;19975;-60
2022/11/09 11:50:29;;;;;;;;;;;;;;;13.20;73.86;100774.22;5049245;28;19919;-60
2022/11/09 11:53:09;;;;;;;;;;;;;;;13.20;73.78;100787.56;5050075;28;19921;-58
2022/11/09 11:55:36;;;;;;;;;;;;;;;13.23;74.10;100790.66;5046682;28;20364;-59
2022/11/09 11:58:20;;;;;;;;;;;;;;;13.31;74.59;100785.25;5049584;28;19956;-58
2022/11/09 12:00:57;;;;;;;;;;;;;;;13.33;73.93;100772.53;5051325;28;19920;-60
2022/11/09 12:03:41;;;;;;;;;;;;;;;13.33;73.85;100767.22;5053029;28;20002;-58
2022/11/09 12:06:06;;;;;;;;;;;;;;;13.30;73.24;100772.09;5049506;28;19971;-60
2022/11/09 12:08:58;;;;;;;;;;;;;;;13.29;73.43;100770.41;5051099;28;19971;-59
2022/11/09 12:11:29;;;;;;;;;;;;;;;13.26;73.31;100763.63;5038992;28;19917;-60
2022/11/09 12:14:03;;;;;;;;;;;;;;;13.25;73.92;100748.63;5046250;28;19927;-59
2022/11/09 12:16:47;;;;;;;;;;;;;;;13.27;73.99;100757.28;5040458;28;20658;-60
2022/11/09 12:19:18;;;;;;;;;;;;;;;13.27;74.07;100759.13;5041411;28;19924;-60
2022/11/09 12:21:49;;;;;;;;;;;;;;;13.30;73.84;100756.09;5045630;28;20296;-60
2022/11/09 12:24:20;;;;;;;;;;;;;;;13.30;73.28;100756.09;5047366;28;19936;-59
2022/11/09 12:26:54;;;;;;;;;;;;;;;13.32;73.00;100760.22;5047459;28;19936;-59
2022/11/09 12:29:20;;;;;;;;;;;;;;;13.33;73.20;100767.22;5045540;28;20006;-59
2022/11/09 12:32:02;;;;;;;;;;;;;;;13.40;73.14;100769.09;5045081;28;19931;-57
2022/11/09 12:34:32;;;;;;;;;;;;;;;13.58;73.21;100772.94;5044359;28;19925;-58
2022/11/09 12:37:02;;;;;;;;;;;;;;;13.73;72.49;100777.41;5049876;28;20290;-60
2022/11/09 12:39:33;;;;;;;;;;;;;;;13.75;72.48;100789.53;5045994;28;19920;-59